Time;durP1;ratioP1;P1;durP2;ratioP2;P2;SDS_P1;SDS_P2;PMS_P1;PMS_P2;Temp;Humidity;BMP_temperature;BMP_pressure;BME280_temperature;BME280_humidity;BME280_pressure;Samples;Min_cycle;Max_cycle;Signal;HPM_P1;HPM_P2
2022/12/03 00:01:35;;;;;;;45.30;28.80;;;;;;;0.92;90.89;102103.94;5081005;28;20977;-63
2022/12/03 00:04:02;;;;;;;38.77;25.03;;;;;;;0.70;90.60;102099.13;5075116;28;20732;-63
2022/12/03 00:06:29;;;;;;;40.97;26.13;;;;;;;0.99;90.19;102097.44;5079398;28;20758;-63
2022/12/03 00:08:56;;;;;;;42.03;27.27;;;;;;;0.75;89.47;102092.56;5071836;28;20399;-62
2022/12/03 00:11:23;;;;;;;41.97;25.63;;;;;;;0.43;90.92;102096.66;5070582;28;20371;-62
2022/12/03 00:13:49;;;;;;;40.53;25.83;;;;;;;0.99;93.69;102093.16;5074763;28;20517;-63
2022/12/03 00:16:16;;;;;;;46.67;26.67;;;;;;;0.82;91.70;102091.25;5061292;28;20310;-62
2022/12/03 00:18:43;;;;;;;41.50;25.30;;;;;;;0.88;91.32;102089.94;5061451;28;20259;-63
2022/12/03 00:21:11;;;;;;;45.50;25.07;;;;;;;0.65;90.12;102088.53;5062188;28;20234;-63
2022/12/03 00:23:37;;;;;;;45.37;26.60;;;;;;;0.69;90.74;102090.50;5062143;28;20633;-62
2022/12/03 00:26:04;;;;;;;43.60;27.90;;;;;;;0.68;90.80;102085.25;5066087;28;20342;-63
2022/12/03 00:28:31;;;;;;;42.50;26.03;;;;;;;0.70;89.31;102088.81;5060942;28;20390;-62
2022/12/03 00:30:57;;;;;;;38.97;25.83;;;;;;;0.45;88.41;102096.75;5062864;28;20353;-62
2022/12/03 00:33:24;;;;;;;40.37;24.50;;;;;;;0.64;88.36;102091.03;5065290;28;20357;-64
2022/12/03 00:35:51;;;;;;;39.60;23.53;;;;;;;0.73;89.00;102096.75;5057336;28;20265;-63
2022/12/03 00:38:20;;;;;;;39.87;25.80;;;;;;;0.91;88.51;102095.28;5051113;28;20313;-62
2022/12/03 00:40:46;;;;;;;36.90;25.60;;;;;;;0.86;88.82;102088.94;5048538;28;20314;-62
2022/12/03 00:43:14;;;;;;;42.47;26.73;;;;;;;0.68;87.35;102085.25;5057420;28;20780;-61
2022/12/03 00:45:40;;;;;;;38.30;25.43;;;;;;;0.61;86.97;102080.50;5049914;28;20792;-62
2022/12/03 00:48:08;;;;;;;40.73;25.47;;;;;;;0.70;89.59;102088.81;5059313;28;20227;-66
2022/12/03 00:50:35;;;;;;;41.00;27.93;;;;;;;0.49;90.29;102083.22;5082234;28;20258;-62
2022/12/03 00:53:02;;;;;;;41.43;26.50;;;;;;;0.46;90.75;102081.34;5066949;28;20279;-62
2022/12/03 00:55:30;;;;;;;45.70;28.97;;;;;;;0.50;89.01;102089.31;5057702;28;20239;-63
2022/12/03 00:57:58;;;;;;;39.63;26.97;;;;;;;0.48;89.39;102084.91;5069681;28;20265;-62
2022/12/03 01:00:25;;;;;;;41.60;26.33;;;;;;;0.56;90.51;102079.31;5088456;28;20245;-63
2022/12/03 01:02:52;;;;;;;45.10;26.23;;;;;;;0.62;87.95;102084.88;5079192;28;20237;-62
2022/12/03 01:05:20;;;;;;;47.33;28.27;;;;;;;0.84;86.17;102087.97;5079491;28;20254;-62
2022/12/03 01:07:47;;;;;;;41.50;27.10;;;;;;;0.34;89.48;102083.16;5081567;28;20234;-62
2022/12/03 01:10:14;;;;;;;41.70;27.50;;;;;;;0.77;87.00;102084.91;5080672;28;20698;-62
2022/12/03 01:12:43;;;;;;;43.40;27.03;;;;;;;0.72;88.96;102087.22;5078624;28;20233;-63
2022/12/03 01:15:10;;;;;;;43.20;27.23;;;;;;;0.76;87.15;102086.59;5085059;28;20234;-62
2022/12/03 01:17:38;;;;;;;42.50;26.73;;;;;;;0.80;87.71;102080.81;5069383;28;20361;-63
2022/12/03 01:20:08;;;;;;;43.63;26.00;;;;;;;1.41;87.72;102081.84;5089327;28;20252;-62
2022/12/03 01:22:35;;;;;;;40.70;26.83;;;;;;;1.43;86.24;102082.81;5066235;28;20260;-62
2022/12/03 01:25:03;;;;;;;42.03;27.93;;;;;;;1.10;85.42;102083.44;5060976;28;20231;-61
2022/12/03 01:27:30;;;;;;;38.87;26.67;;;;;;;1.12;85.19;102084.41;5074973;28;20313;-62
2022/12/03 01:29:58;;;;;;;40.90;27.37;;;;;;;0.68;85.33;102087.84;5071134;28;20230;-62
2022/12/03 01:32:25;;;;;;;48.13;28.97;;;;;;;0.89;88.65;102089.13;5067668;28;20225;-63
2022/12/03 01:34:53;;;;;;;38.83;25.73;;;;;;;1.10;87.57;102088.63;5065105;28;20679;-62
2022/12/03 01:37:21;;;;;;;40.43;27.67;;;;;;;0.38;87.71;102086.84;5067775;28;20302;-62
2022/12/03 01:39:48;;;;;;;38.43;25.70;;;;;;;0.69;90.29;102082.75;5071472;28;20229;-62
2022/12/03 01:42:17;;;;;;;41.90;27.33;;;;;;;0.70;85.59;102076.81;5071369;28;20593;-62
2022/12/03 01:44:44;;;;;;;43.87;27.90;;;;;;;0.91;88.46;102078.84;5066509;28;20236;-64
2022/12/03 01:47:15;;;;;;;42.07;27.27;;;;;;;0.98;87.64;102078.41;5073271;28;20229;-62
2022/12/03 01:49:43;;;;;;;41.37;27.40;;;;;;;1.16;86.95;102078.66;5062325;28;21009;-61
2022/12/03 01:52:13;;;;;;;45.47;29.17;;;;;;;0.66;84.80;102084.25;5059476;28;20230;-61
2022/12/03 01:54:42;;;;;;;39.47;27.30;;;;;;;0.83;88.72;102085.28;5069074;28;20238;-62
2022/12/03 01:57:19;;;;;;;45.63;27.83;;;;;;;0.65;86.92;102075.63;5066786;28;20237;-61
2022/12/03 01:59:46;;;;;;;43.87;26.77;;;;;;;1.32;89.27;102073.53;5058609;28;22005;-62
2022/12/03 02:02:19;;;;;;;46.90;27.00;;;;;;;1.24;82.66;102072.22;5067221;28;20313;-63
2022/12/03 02:04:47;;;;;;;43.67;27.60;;;;;;;0.86;84.83;102081.19;5069152;28;20306;-62
2022/12/03 02:07:22;;;;;;;47.40;27.87;;;;;;;0.99;85.42;102066.41;5081322;28;20719;-61
2022/12/03 02:09:49;;;;;;;44.47;29.23;;;;;;;0.67;87.02;102076.59;5062882;28;20230;-62
2022/12/03 02:12:19;;;;;;;38.93;25.90;;;;;;;0.82;86.53;102074.03;5058890;28;20402;-62
2022/12/03 02:14:46;;;;;;;43.87;29.03;;;;;;;0.70;86.32;102078.47;5070242;28;20902;-61
2022/12/03 02:17:15;;;;;;;41.43;26.63;;;;;;;0.82;87.27;102063.72;5073526;28;20260;-62
2022/12/03 02:19:42;;;;;;;43.03;27.37;;;;;;;1.03;87.37;102074.44;5067806;28;20244;-62
2022/12/03 02:22:17;;;;;;;36.90;27.70;;;;;;;0.86;87.48;102078.59;5078110;28;20288;-61
2022/12/03 02:24:48;;;;;;;45.00;28.27;;;;;;;1.01;86.84;102069.97;5079809;28;20240;-62
2022/12/03 02:27:17;;;;;;;49.93;29.30;;;;;;;0.87;85.27;102067.44;5080482;28;20226;-62
2022/12/03 02:29:44;;;;;;;48.77;28.77;;;;;;;0.50;88.73;102063.47;5082116;28;20238;-61
2022/12/03 02:32:14;;;;;;;39.27;28.00;;;;;;;0.59;87.77;102075.22;5081901;28;20233;-63
2022/12/03 02:34:43;;;;;;;41.57;27.87;;;;;;;0.45;87.33;102071.81;5078434;28;20225;-62
2022/12/03 02:37:12;;;;;;;42.30;26.50;;;;;;;0.86;86.27;102070.84;5075309;28;20231;-61
2022/12/03 02:39:44;;;;;;;43.53;26.60;;;;;;;0.52;86.21;102072.19;5074919;28;20262;-61
2022/12/03 02:45:00;;;;;;;42.87;25.00;;;;;;;0.78;86.33;102072.09;5080404;28;20596;-62
2022/12/03 02:47:28;;;;;;;45.50;27.90;;;;;;;0.79;87.21;102078.16;5064002;28;20263;-61
2022/12/03 02:49:55;;;;;;;41.47;26.27;;;;;;;0.83;84.86;102069.75;5069953;28;20256;-61
2022/12/03 02:52:23;;;;;;;37.80;27.43;;;;;;;0.91;85.47;102074.63;5081482;28;20230;-62
2022/12/03 02:54:50;;;;;;;40.30;25.77;;;;;;;1.30;86.40;102075.16;5081109;28;20251;-62
2022/12/03 02:57:17;;;;;;;41.43;26.23;;;;;;;1.38;85.45;102065.25;5072399;28;25970;-61
2022/12/03 02:59:45;;;;;;;39.67;25.80;;;;;;;1.11;83.24;102072.28;5073994;28;20272;-62
2022/12/03 03:02:14;;;;;;;43.73;26.87;;;;;;;0.96;84.99;102056.78;5061831;28;20453;-62
2022/12/03 03:04:42;;;;;;;42.40;27.67;;;;;;;0.60;84.16;102065.81;5077760;28;20317;-63
2022/12/03 03:07:10;;;;;;;41.53;26.50;;;;;;;0.78;86.94;102077.25;5061612;28;20238;-61
2022/12/03 03:09:37;;;;;;;34.63;25.37;;;;;;;0.60;85.20;102079.63;5060083;28;20263;-60
2022/12/03 03:12:05;;;;;;;42.80;25.93;;;;;;;0.61;85.80;102065.00;5069865;28;20229;-62
2022/12/03 03:14:32;;;;;;;38.80;25.73;;;;;;;0.76;84.71;102073.66;5065526;28;20276;-61
2022/12/03 03:16:59;;;;;;;43.73;25.07;;;;;;;1.13;85.60;102065.53;5059852;28;20611;-62
2022/12/03 03:19:28;;;;;;;43.70;26.43;;;;;;;0.99;84.58;102063.81;5059030;28;20243;-62
2022/12/03 03:21:55;;;;;;;39.97;25.33;;;;;;;0.85;86.43;102066.47;5070575;28;20233;-62
2022/12/03 03:24:22;;;;;;;40.60;27.60;;;;;;;1.22;86.93;102058.28;5063310;28;20266;-62
2022/12/03 03:26:50;;;;;;;42.60;27.33;;;;;;;1.01;85.08;102054.44;5058863;28;20303;-61
2022/12/03 03:29:17;;;;;;;39.63;25.90;;;;;;;0.87;84.64;102062.28;5060842;28;20255;-61
2022/12/03 03:31:45;;;;;;;40.60;26.37;;;;;;;0.94;83.62;102051.50;5075947;28;20241;-61
2022/12/03 03:34:12;;;;;;;40.63;27.03;;;;;;;0.95;85.88;102050.72;5081601;28;20230;-62
2022/12/03 03:36:41;;;;;;;40.80;27.20;;;;;;;0.66;87.72;102050.66;5082279;28;20236;-63
2022/12/03 03:39:08;;;;;;;40.23;26.50;;;;;;;0.62;87.12;102054.75;5085985;28;20231;-65
2022/12/03 03:41:35;;;;;;;40.10;28.33;;;;;;;0.58;89.00;102051.91;5073196;28;20238;-62
2022/12/03 03:44:04;;;;;;;53.10;29.97;;;;;;;0.59;84.94;102046.81;5077151;28;20271;-60
2022/12/03 03:46:32;;;;;;;39.57;26.83;;;;;;;0.75;86.09;102051.22;5075616;28;20246;-62
2022/12/03 03:48:59;;;;;;;49.80;28.57;;;;;;;0.47;88.04;102039.22;5078387;28;20226;-62
2022/12/03 03:51:26;;;;;;;45.30;28.97;;;;;;;0.31;88.00;102035.59;5079329;28;20229;-62
2022/12/03 03:53:54;;;;;;;46.77;27.33;;;;;;;0.91;87.95;102034.91;5079909;28;20245;-62
2022/12/03 03:56:22;;;;;;;43.83;26.10;;;;;;;0.58;86.10;102038.97;5085217;28;20375;-61
2022/12/03 03:58:49;;;;;;;42.63;27.97;;;;;;;0.85;87.31;102032.88;5080367;28;20328;-62
2022/12/03 04:01:17;;;;;;;46.97;28.50;;;;;;;0.86;88.92;102037.22;5080842;28;20294;-62
2022/12/03 04:03:44;;;;;;;41.97;28.27;;;;;;;0.99;86.94;102018.16;5081391;28;20238;-62
2022/12/03 04:06:11;;;;;;;39.80;26.77;;;;;;;0.79;87.65;102022.16;5081588;28;20329;-61
2022/12/03 04:08:38;;;;;;;48.40;27.53;;;;;;;0.84;85.87;102025.00;5081347;28;20229;-61
2022/12/03 04:13:52;;;;;;;43.47;26.93;;;;;;;0.98;88.19;102023.22;5077402;28;20253;-61
2022/12/03 04:16:18;;;;;;;37.93;26.73;;;;;;;1.23;84.95;102015.19;5065204;28;20248;-62
2022/12/03 04:18:46;;;;;;;41.10;26.40;;;;;;;0.98;81.72;102015.47;5063719;28;20226;-62
2022/12/03 04:23:58;;;;;;;40.23;26.43;;;;;;;1.09;85.74;102016.97;5065037;28;20275;-64
2022/12/03 04:29:24;;;;;;;41.83;26.83;;;;;;;0.80;86.89;102016.19;4999629;28;20834;-61
2022/12/03 04:37:20;;;;;;;39.57;27.77;;;;;;;0.82;86.34;102013.69;5075860;28;20266;-61
2022/12/03 04:39:47;;;;;;;42.63;27.23;;;;;;;0.92;86.12;102013.44;5081818;28;20233;-61
2022/12/03 04:42:16;;;;;;;46.23;27.67;;;;;;;0.63;86.90;102001.38;5079368;28;20226;-61
2022/12/03 04:44:43;;;;;;;42.43;25.97;;;;;;;0.91;88.15;102011.63;5071501;28;20229;-61
2022/12/03 04:47:12;;;;;;;44.13;26.57;;;;;;;0.96;84.98;102012.81;5079084;28;20697;-62
2022/12/03 04:49:40;;;;;;;39.97;27.30;;;;;;;0.70;85.07;102008.69;5076313;28;20219;-62
2022/12/03 04:52:08;;;;;;;40.00;27.27;;;;;;;0.77;87.59;102010.81;5079835;28;20230;-61
2022/12/03 04:54:36;;;;;;;39.03;26.67;;;;;;;0.64;86.64;102016.09;5077381;28;20233;-62
2022/12/03 04:57:03;;;;;;;45.97;28.47;;;;;;;0.83;87.66;102008.59;5059544;28;20417;-61
2022/12/03 04:59:32;;;;;;;42.90;27.57;;;;;;;0.80;86.70;102011.00;5057937;28;20230;-62
2022/12/03 05:01:59;;;;;;;40.77;25.80;;;;;;;0.91;83.73;102006.47;5058839;28;20265;-64
2022/12/03 05:04:27;;;;;;;40.17;26.03;;;;;;;1.01;83.03;102007.91;5060927;28;20241;-62
2022/12/03 05:06:54;;;;;;;37.43;24.83;;;;;;;0.94;84.61;102002.38;5067556;28;20321;-62
2022/12/03 05:09:21;;;;;;;42.40;27.43;;;;;;;1.08;87.06;101999.69;5065022;28;20223;-62
2022/12/03 05:11:48;;;;;;;42.70;26.50;;;;;;;1.41;85.29;101995.56;5045936;28;20653;-61
2022/12/03 05:14:15;;;;;;;39.10;26.10;;;;;;;1.13;82.89;102003.47;5068032;28;20310;-61
2022/12/03 05:16:43;;;;;;;44.73;27.40;;;;;;;0.95;84.08;101992.94;5056818;28;20258;-62
2022/12/03 05:19:10;;;;;;;42.00;26.67;;;;;;;0.84;84.97;101994.91;5063281;28;20266;-61
2022/12/03 05:21:36;;;;;;;45.67;27.50;;;;;;;1.45;86.26;101997.53;5065250;28;20280;-61
2022/12/03 05:24:04;;;;;;;38.30;27.27;;;;;;;1.29;83.44;101988.00;5053214;28;20269;-62
2022/12/03 05:26:31;;;;;;;44.23;27.90;;;;;;;0.99;84.12;101991.44;5056306;28;20662;-62
2022/12/03 05:28:58;;;;;;;42.43;26.97;;;;;;;1.14;88.16;101994.88;5057397;28;20291;-61
2022/12/03 05:31:26;;;;;;;37.30;25.37;;;;;;;0.86;86.64;101995.88;5067990;28;20236;-63
2022/12/03 05:33:54;;;;;;;39.33;28.37;;;;;;;0.85;85.36;102000.97;5080563;28;20644;-62
2022/12/03 05:36:21;;;;;;;44.03;27.20;;;;;;;1.12;85.78;101999.06;5060046;28;20305;-61
2022/12/03 05:38:49;;;;;;;38.33;25.27;;;;;;;1.29;84.11;101995.75;5059208;28;20711;-61
2022/12/03 05:44:00;;;;;;;39.63;25.77;;;;;;;1.39;86.95;101999.75;5057115;28;20245;-63
2022/12/03 05:46:26;;;;;;;38.47;26.03;;;;;;;1.45;85.81;101991.47;5064960;28;20253;-61
2022/12/03 05:48:55;;;;;;;41.57;27.10;;;;;;;1.43;87.23;101987.06;5054760;28;20229;-61
2022/12/03 05:51:22;;;;;;;41.97;27.23;;;;;;;1.26;88.28;101980.03;5049749;28;20252;-61
2022/12/03 05:53:48;;;;;;;42.43;28.80;;;;;;;1.29;83.66;101985.41;5066278;28;20669;-62
2022/12/03 05:56:15;;;;;;;45.30;25.93;;;;;;;0.93;85.97;101979.03;5058916;28;20317;-61
2022/12/03 05:58:42;;;;;;;42.73;28.03;;;;;;;0.99;89.64;101983.66;5061506;28;20228;-61
2022/12/03 06:01:09;;;;;;;40.67;27.20;;;;;;;0.88;91.14;101977.88;5055245;28;20249;-62
2022/12/03 06:03:36;;;;;;;48.10;27.30;;;;;;;1.18;89.38;101986.50;5058667;28;20263;-61
2022/12/03 06:06:05;;;;;;;40.90;26.57;;;;;;;1.07;90.44;101983.28;5061088;28;20309;-62
2022/12/03 06:08:32;;;;;;;38.80;26.07;;;;;;;1.27;89.13;101981.84;5076473;28;20341;-62
2022/12/03 06:10:59;;;;;;;44.37;27.90;;;;;;;1.33;90.35;101977.00;5079246;28;20303;-72
2022/12/03 06:13:26;;;;;;;45.07;27.73;;;;;;;1.22;90.40;101985.84;5079636;28;20297;-62
2022/12/03 06:15:53;;;;;;;42.80;27.90;;;;;;;1.15;91.20;101987.19;5077703;28;20233;-62
2022/12/03 06:18:20;;;;;;;39.43;27.40;;;;;;;1.33;91.09;101987.34;5075757;28;20263;-62
2022/12/03 06:20:47;;;;;;;42.97;28.60;;;;;;;1.00;92.51;101990.63;5060027;28;20236;-61
2022/12/03 06:23:15;;;;;;;45.97;27.47;;;;;;;1.10;94.43;101987.75;5063230;28;22008;-61
2022/12/03 06:25:42;;;;;;;43.80;28.77;;;;;;;0.97;94.26;101983.56;5063796;28;20238;-61
2022/12/03 06:28:09;;;;;;;49.67;27.83;;;;;;;1.18;96.33;101982.22;5081589;28;20709;-62
2022/12/03 06:30:36;;;;;;;42.73;29.30;;;;;;;0.66;94.79;101983.47;5076930;28;20238;-62
2022/12/03 06:33:03;;;;;;;45.73;29.60;;;;;;;1.26;95.80;101982.63;5067337;28;20372;-62
2022/12/03 06:35:30;;;;;;;43.27;26.77;;;;;;;1.02;95.86;101978.66;5063914;28;20613;-61
2022/12/03 06:37:57;;;;;;;41.97;27.70;;;;;;;1.11;95.18;101986.94;5067098;28;20234;-62
2022/12/03 06:40:26;;;;;;;46.00;28.97;;;;;;;1.16;93.03;101977.78;5060164;28;20241;-61
2022/12/03 06:42:53;;;;;;;42.97;27.83;;;;;;;1.17;94.34;101984.72;5069483;28;20654;-61
2022/12/03 06:45:20;;;;;;;45.90;28.80;;;;;;;1.34;95.59;101983.97;5083720;28;20283;-61
2022/12/03 06:47:47;;;;;;;40.90;27.17;;;;;;;1.43;94.29;101979.31;5062064;28;20234;-62
2022/12/03 06:50:14;;;;;;;47.40;29.60;;;;;;;1.09;93.40;101981.69;5081630;28;20319;-61
2022/12/03 06:52:41;;;;;;;42.57;28.00;;;;;;;1.08;93.99;101981.59;5082772;28;20333;-61
2022/12/03 06:55:09;;;;;;;49.13;28.93;;;;;;;0.70;93.13;101978.59;5084304;28;20379;-61
2022/12/03 06:57:38;;;;;;;47.00;27.27;;;;;;;0.44;95.53;101983.88;5074031;28;20242;-61
2022/12/03 07:00:08;;;;;;;45.57;28.50;;;;;;;0.62;97.79;101984.97;5071706;28;20316;-62
2022/12/03 07:02:35;;;;;;;41.20;26.47;;;;;;;0.68;95.26;101982.75;5073027;28;20242;-62
2022/12/03 07:05:03;;;;;;;49.07;27.87;;;;;;;1.18;95.56;101982.22;5078385;28;20715;-63
2022/12/03 07:07:30;;;;;;;44.83;27.93;;;;;;;1.01;92.32;101982.03;5063530;28;20235;-62
2022/12/03 07:09:57;;;;;;;47.87;27.20;;;;;;;1.10;94.70;101977.41;5070277;28;20228;-62
2022/12/03 07:12:24;;;;;;;45.70;29.13;;;;;;;1.05;97.00;101976.25;5064813;28;20671;-61
2022/12/03 07:14:52;;;;;;;49.27;28.23;;;;;;;0.89;96.93;101975.38;5054322;28;20253;-62
2022/12/03 07:17:19;;;;;;;52.37;29.83;;;;;;;1.06;95.84;101975.47;5067346;28;20238;-62
2022/12/03 07:19:46;;;;;;;44.60;28.53;;;;;;;1.17;96.40;101977.84;5062928;28;20231;-62
2022/12/03 07:22:13;;;;;;;42.03;27.93;;;;;;;1.28;95.47;101983.63;5055128;28;20238;-62
2022/12/03 07:24:40;;;;;;;48.53;28.77;;;;;;;1.69;93.00;101982.47;5067510;28;20309;-63
2022/12/03 07:27:07;;;;;;;41.90;28.80;;;;;;;1.29;95.93;101980.22;5067866;28;20309;-63
2022/12/03 07:29:34;;;;;;;45.67;29.87;;;;;;;1.50;96.18;101979.66;5056851;28;20276;-63
2022/12/03 07:32:03;;;;;;;44.90;27.97;;;;;;;1.79;93.02;101981.25;5058242;28;20261;-61
2022/12/03 07:34:29;;;;;;;39.90;26.40;;;;;;;1.26;92.12;101976.56;5061162;28;20242;-62
2022/12/03 07:36:57;;;;;;;42.13;27.00;;;;;;;1.65;93.89;101976.22;5052523;28;20246;-63
2022/12/03 07:39:24;;;;;;;44.07;28.87;;;;;;;1.24;93.32;101973.91;5065026;28;20358;-62
2022/12/03 07:41:51;;;;;;;39.57;26.77;;;;;;;0.97;96.43;101982.69;5069155;28;20245;-62
2022/12/03 07:44:18;;;;;;;46.87;28.03;;;;;;;1.20;97.79;101979.72;5071961;28;20252;-63
2022/12/03 07:46:45;;;;;;;45.20;28.87;;;;;;;0.81;94.79;101968.88;5080123;28;20248;-62
2022/12/03 07:49:13;;;;;;;45.20;27.53;;;;;;;0.84;97.27;101974.22;5066740;28;20234;-62
2022/12/03 07:51:41;;;;;;;52.30;28.60;;;;;;;1.05;97.04;101978.81;5072005;28;20397;-61
2022/12/03 07:54:08;;;;;;;43.57;26.90;;;;;;;1.46;96.44;101983.75;5072935;28;20229;-64
2022/12/03 07:56:35;;;;;;;40.10;28.17;;;;;;;1.09;95.43;101983.38;5073885;28;20237;-63
2022/12/03 07:59:02;;;;;;;40.17;28.63;;;;;;;1.26;95.44;101985.22;5066227;28;20238;-64
2022/12/03 08:01:29;;;;;;;44.27;26.53;;;;;;;0.84;94.18;101974.22;5061816;28;20333;-62
2022/12/03 08:03:56;;;;;;;46.27;28.63;;;;;;;0.75;97.47;101973.69;5065379;28;20226;-62
2022/12/03 08:06:24;;;;;;;52.10;28.70;;;;;;;0.38;99.76;101974.06;5077946;28;20237;-63
2022/12/03 08:08:51;;;;;;;44.27;30.93;;;;;;;0.11;100.00;101969.84;5060667;28;20244;-62
2022/12/03 08:11:18;;;;;;;40.90;29.17;;;;;;;0.20;100.00;101970.38;5052603;28;20254;-63
2022/12/03 08:13:45;;;;;;;45.77;28.20;;;;;;;0.76;99.87;101967.69;5060591;28;20225;-62
2022/12/03 08:16:17;;;;;;;41.27;26.47;;;;;;;1.01;96.85;101962.25;5077539;28;20718;-62
2022/12/03 08:18:44;;;;;;;41.93;29.17;;;;;;;0.58;97.71;101964.91;5079480;28;20226;-62
2022/12/03 08:21:12;;;;;;;41.47;26.67;;;;;;;0.80;96.35;101961.91;5074246;28;20379;-61
2022/12/03 08:23:40;;;;;;;47.23;30.03;;;;;;;0.35;95.61;101971.31;5063414;28;20331;-62
2022/12/03 08:26:16;;;;;;;45.13;27.60;;;;;;;0.50;97.57;101953.25;5070789;28;20303;-62
2022/12/03 08:28:43;;;;;;;43.23;25.80;;;;;;;0.98;95.99;101956.88;5065465;28;20284;-61
2022/12/03 08:31:18;;;;;;;47.43;27.93;;;;;;;0.91;96.09;101963.44;5067071;28;20280;-66
2022/12/03 08:34:16;;;;;;;47.93;28.53;;;;;;;0.87;93.32;101961.44;5042811;28;20241;-62
2022/12/03 08:36:43;;;;;;;45.73;28.27;;;;;;;0.91;95.60;101953.09;5070009;28;20725;-62
2022/12/03 08:39:26;;;;;;;45.77;28.87;;;;;;;0.71;98.90;101956.22;5080463;28;20223;-62
2022/12/03 08:44:40;;;;;;;43.33;27.77;;;;;;;0.82;97.33;101960.31;5064009;28;20240;-62
2022/12/03 08:47:12;;;;;;;46.70;28.67;;;;;;;0.66;99.62;101952.44;5058793;28;20297;-62
2022/12/03 08:49:39;;;;;;;48.77;29.57;;;;;;;0.84;99.22;101957.78;5066549;28;20238;-61
2022/12/03 08:52:11;;;;;;;39.30;27.13;;;;;;;1.18;99.09;101958.94;5068523;28;20323;-61
2022/12/03 08:54:40;;;;;;;49.40;30.57;;;;;;;0.84;98.49;101960.38;5063847;28;20590;-63
2022/12/03 08:57:36;;;;;;;44.60;27.30;;;;;;;0.90;98.70;101959.03;5065266;28;20740;-63
2022/12/03 09:00:14;;;;;;;45.03;26.50;;;;;;;0.62;96.85;101955.66;5055997;28;20225;-63
2022/12/03 09:02:45;;;;;;;46.13;30.27;;;;;;;0.24;100.00;101967.19;5063309;28;20234;-64
2022/12/03 09:05:16;;;;;;;43.67;25.70;;;;;;;0.78;100.00;101960.03;5054001;28;20242;-62
2022/12/03 09:07:43;;;;;;;46.17;28.30;;;;;;;0.92;99.76;101956.56;5069972;28;20236;-62
2022/12/03 09:10:11;;;;;;;45.73;26.23;;;;;;;1.08;97.58;101959.19;5061147;28;20244;-64
2022/12/03 09:12:38;;;;;;;47.83;28.03;;;;;;;0.95;96.92;101962.81;5066376;28;20234;-62
2022/12/03 09:15:06;;;;;;;42.57;27.00;;;;;;;0.77;97.81;101966.88;5059631;28;20248;-62
2022/12/03 09:17:33;;;;;;;50.50;28.83;;;;;;;0.70;99.43;101954.41;5061606;28;20290;-62
2022/12/03 09:20:00;;;;;;;48.03;29.47;;;;;;;0.84;99.99;101953.53;5056834;28;20288;-62
2022/12/03 09:22:27;;;;;;;41.97;26.93;;;;;;;0.64;100.00;101949.78;5057879;28;20233;-63
2022/12/03 09:24:54;;;;;;;43.37;27.83;;;;;;;1.01;100.00;101951.91;5052594;28;20891;-63
2022/12/03 09:27:23;;;;;;;41.47;27.50;;;;;;;0.92;100.00;101952.28;5051148;28;20235;-62
2022/12/03 09:29:50;;;;;;;44.37;26.63;;;;;;;0.69;98.08;101948.34;5068404;28;20226;-62
2022/12/03 09:32:16;;;;;;;47.87;29.07;;;;;;;0.81;99.77;101944.69;5076908;28;20691;-62
2022/12/03 09:34:43;;;;;;;46.67;28.10;;;;;;;1.21;99.59;101950.47;5076029;28;20249;-62
2022/12/03 09:37:10;;;;;;;42.80;27.03;;;;;;;1.07;100.00;101943.63;5072234;28;20344;-62
2022/12/03 09:39:37;;;;;;;47.40;27.37;;;;;;;1.33;100.00;101943.38;5064232;28;20230;-62
2022/12/03 09:42:04;;;;;;;43.17;28.80;;;;;;;1.15;98.05;101939.75;5062486;28;20302;-64
2022/12/03 09:44:34;;;;;;;48.57;28.23;;;;;;;1.12;100.00;101934.41;5056517;28;20246;-63
2022/12/03 09:47:01;;;;;;;51.30;30.40;;;;;;;1.12;100.00;101939.56;5063359;28;20929;-63
2022/12/03 09:49:29;;;;;;;53.27;28.63;;;;;;;0.97;99.26;101933.56;5064661;28;20228;-63
2022/12/03 09:51:56;;;;;;;48.63;27.73;;;;;;;1.19;99.54;101931.34;5073733;28;20285;-61
2022/12/03 09:54:26;;;;;;;41.80;28.20;;;;;;;1.19;98.59;101936.53;5063757;28;20312;-62
2022/12/03 09:56:54;;;;;;;47.57;28.60;;;;;;;0.97;100.00;101925.78;5072182;28;20249;-62
2022/12/03 09:59:22;;;;;;;43.60;28.10;;;;;;;0.54;99.61;101928.50;5078273;28;20279;-62
2022/12/03 10:01:50;;;;;;;47.60;28.67;;;;;;;1.00;100.00;101923.38;5074109;28;20248;-62
2022/12/03 10:04:17;;;;;;;47.33;30.73;;;;;;;1.09;99.58;101923.88;5061059;28;20246;-62
2022/12/03 10:06:43;;;;;;;46.87;27.83;;;;;;;1.29;99.04;101918.13;5060758;28;20785;-61
2022/12/03 10:09:11;;;;;;;56.87;28.73;;;;;;;1.33;98.37;101908.84;5061449;28;20329;-62
2022/12/03 10:11:38;;;;;;;44.93;27.17;;;;;;;1.35;96.40;101908.13;5062542;28;20254;-62
2022/12/03 10:14:06;;;;;;;53.40;27.83;;;;;;;1.18;97.78;101914.94;5071407;28;20688;-62
2022/12/03 10:16:33;;;;;;;42.50;25.00;;;;;;;1.04;96.84;101909.81;5062377;28;20594;-64
2022/12/03 10:19:01;;;;;;;50.10;28.77;;;;;;;1.33;98.58;101904.56;5056888;28;20816;-62
2022/12/03 10:21:30;;;;;;;54.70;30.67;;;;;;;0.83;97.71;101905.22;5075769;28;20297;-62
2022/12/03 10:24:19;;;;;;;50.50;28.40;;;;;;;0.79;100.00;101899.78;5061965;28;20226;-62
2022/12/03 10:26:49;;;;;;;50.57;27.10;;;;;;;1.09;99.94;101908.38;5065156;28;20769;-62
2022/12/03 10:29:18;;;;;;;44.50;25.63;;;;;;;1.31;99.61;101901.00;5067099;28;20224;-63
2022/12/03 10:31:45;;;;;;;46.73;27.63;;;;;;;1.40;99.02;101906.72;5060257;28;20267;-62
2022/12/03 10:34:13;;;;;;;41.90;25.53;;;;;;;1.44;98.01;101889.66;5062511;28;20280;-62
2022/12/03 10:36:43;;;;;;;44.33;27.03;;;;;;;1.35;97.47;101895.19;5063223;28;20709;-61
2022/12/03 10:39:11;;;;;;;50.53;27.10;;;;;;;1.43;96.71;101891.31;5064126;28;20234;-62
2022/12/03 10:41:39;;;;;;;45.77;26.80;;;;;;;1.80;96.89;101882.06;5062442;28;20236;-61
2022/12/03 10:44:16;;;;;;;46.03;27.30;;;;;;;1.48;98.07;101888.13;5066610;28;20237;-62
2022/12/03 10:46:43;;;;;;;42.67;26.10;;;;;;;1.69;98.34;101889.28;5067562;28;20245;-62
2022/12/03 10:49:15;;;;;;;43.13;27.33;;;;;;;1.37;99.75;101891.00;5074642;28;20230;-62
2022/12/03 10:51:42;;;;;;;52.10;28.57;;;;;;;1.25;98.56;101895.50;5073438;28;20256;-62
2022/12/03 10:54:15;;;;;;;43.80;27.83;;;;;;;0.91;98.13;101892.72;5075185;28;20301;-62
2022/12/03 10:56:42;;;;;;;48.13;27.80;;;;;;;0.86;97.50;101886.41;5066675;28;20230;-61
2022/12/03 10:59:13;;;;;;;47.23;29.77;;;;;;;0.64;99.71;101887.75;5072180;28;20317;-61
2022/12/03 11:01:40;;;;;;;41.83;25.03;;;;;;;1.32;99.35;101892.44;5071437;28;20236;-62
2022/12/03 11:04:20;;;;;;;44.60;27.83;;;;;;;1.29;97.76;101887.09;5070906;28;20263;-62
2022/12/03 11:06:47;;;;;;;52.00;28.87;;;;;;;1.05;96.21;101880.56;5083368;28;20245;-62
2022/12/03 11:09:17;;;;;;;46.53;27.70;;;;;;;1.18;100.00;101888.19;5079451;28;20826;-62
2022/12/03 11:11:44;;;;;;;46.23;27.67;;;;;;;0.79;100.00;101885.16;5073484;28;20302;-62
2022/12/03 11:14:11;;;;;;;52.67;28.40;;;;;;;1.18;97.60;101885.63;5078317;28;20306;-62
2022/12/03 11:17:08;;;;;;;39.57;25.37;;;;;;;1.37;96.52;101878.06;5082490;28;20249;-61
2022/12/03 11:19:47;;;;;;;53.93;28.10;;;;;;;1.40;96.88;101870.47;5082151;28;20264;-62
2022/12/03 11:22:40;;;;;;;51.00;28.33;;;;;;;1.36;92.77;101878.84;5072953;28;20235;-60
2022/12/03 11:25:45;;;;;;;47.17;27.47;;;;;;;1.18;96.10;101870.97;5057967;28;20337;-61
2022/12/03 11:28:36;;;;;;;48.77;26.87;;;;;;;1.29;97.83;101862.94;5057296;28;20285;-62
2022/12/03 11:31:10;;;;;;;51.07;27.27;;;;;;;1.09;97.24;101865.31;5053333;28;20232;-63
2022/12/03 11:33:38;;;;;;;50.93;27.40;;;;;;;1.10;98.11;101856.75;5060420;28;20241;-61
2022/12/03 11:36:18;;;;;;;46.17;27.43;;;;;;;1.11;98.35;101858.53;5057903;28;20313;-62
2022/12/03 11:38:55;;;;;;;50.27;28.20;;;;;;;1.21;98.52;101847.00;5066801;28;20238;-62
2022/12/03 11:41:28;;;;;;;42.50;23.60;;;;;;;1.09;100.00;101841.13;5078614;28;20228;-61
2022/12/03 11:44:01;;;;;;;45.83;26.77;;;;;;;0.69;97.69;101847.56;5062581;28;20349;-62
2022/12/03 11:46:31;;;;;;;45.03;25.47;;;;;;;1.10;100.00;101842.94;5063111;28;20245;-62